sensor_id;sensor_type;location;lat;lon;timestamp;P1;durP1;ratioP1;P2;durP2;ratioP2
49728;SDS011;66333;49.798;10.968;2023-02-28T00:01:09;3.63;;;2.00;;
49728;SDS011;66333;49.798;10.968;2023-02-28T00:03:36;5.03;;;2.20;;
49728;SDS011;66333;49.798;10.968;2023-02-28T00:06:02;4.97;;;2.57;;
49728;SDS011;66333;49.798;10.968;2023-02-28T00:08:29;4.87;;;2.07;;
49728;SDS011;66333;49.798;10.968;2023-02-28T00:10:56;4.23;;;2.00;;
49728;SDS011;66333;49.798;10.968;2023-02-28T00:13:22;4.90;;;2.33;;
49728;SDS011;66333;49.798;10.968;2023-02-28T00:15:59;4.10;;;1.90;;
49728;SDS011;66333;49.798;10.968;2023-02-28T00:18:26;4.73;;;2.13;;
49728;SDS011;66333;49.798;10.968;2023-02-28T00:20:52;5.17;;;2.10;;
49728;SDS011;66333;49.798;10.968;2023-02-28T00:23:19;4.87;;;2.07;;
49728;SDS011;66333;49.798;10.968;2023-02-28T00:25:45;4.13;;;2.17;;
49728;SDS011;66333;49.798;10.968;2023-02-28T00:28:11;5.27;;;2.20;;
49728;SDS011;66333;49.798;10.968;2023-02-28T00:30:38;4.43;;;2.20;;
49728;SDS011;66333;49.798;10.968;2023-02-28T00:33:06;4.43;;;2.23;;
49728;SDS011;66333;49.798;10.968;2023-02-28T00:35:32;4.90;;;2.33;;
49728;SDS011;66333;49.798;10.968;2023-02-28T00:37:58;4.47;;;2.37;;
49728;SDS011;66333;49.798;10.968;2023-02-28T00:40:25;5.20;;;2.00;;
49728;SDS011;66333;49.798;10.968;2023-02-28T00:42:51;4.23;;;1.90;;
49728;SDS011;66333;49.798;10.968;2023-02-28T00:45:17;4.60;;;2.43;;
49728;SDS011;66333;49.798;10.968;2023-02-28T00:47:44;4.40;;;2.30;;
49728;SDS011;66333;49.798;10.968;2023-02-28T00:50:12;3.83;;;1.90;;
49728;SDS011;66333;49.798;10.968;2023-02-28T00:52:39;4.30;;;2.10;;
49728;SDS011;66333;49.798;10.968;2023-02-28T00:55:05;4.90;;;2.07;;
49728;SDS011;66333;49.798;10.968;2023-02-28T00:57:32;4.47;;;2.20;;
49728;SDS011;66333;49.798;10.968;2023-02-28T00:59:58;5.43;;;2.30;;
49728;SDS011;66333;49.798;10.968;2023-02-28T01:02:25;5.77;;;2.13;;
49728;SDS011;66333;49.798;10.968;2023-02-28T01:04:51;4.23;;;1.97;;
49728;SDS011;66333;49.798;10.968;2023-02-28T01:07:19;4.50;;;2.00;;
49728;SDS011;66333;49.798;10.968;2023-02-28T01:09:45;5.00;;;2.20;;
49728;SDS011;66333;49.798;10.968;2023-02-28T01:12:11;4.70;;;2.10;;
49728;SDS011;66333;49.798;10.968;2023-02-28T01:14:38;4.90;;;2.10;;
49728;SDS011;66333;49.798;10.968;2023-02-28T01:17:04;4.43;;;1.93;;
49728;SDS011;66333;49.798;10.968;2023-02-28T01:19:30;4.07;;;1.97;;
49728;SDS011;66333;49.798;10.968;2023-02-28T01:21:58;4.73;;;2.00;;
49728;SDS011;66333;49.798;10.968;2023-02-28T01:24:28;4.07;;;2.00;;
49728;SDS011;66333;49.798;10.968;2023-02-28T01:26:54;4.43;;;1.93;;
49728;SDS011;66333;49.798;10.968;2023-02-28T01:29:20;4.00;;;1.83;;
49728;SDS011;66333;49.798;10.968;2023-02-28T01:31:47;4.20;;;2.10;;
49728;SDS011;66333;49.798;10.968;2023-02-28T01:34:13;4.63;;;1.90;;
49728;SDS011;66333;49.798;10.968;2023-02-28T01:36:40;4.17;;;1.80;;
49728;SDS011;66333;49.798;10.968;2023-02-28T01:39:06;4.83;;;2.33;;
49728;SDS011;66333;49.798;10.968;2023-02-28T01:41:34;4.80;;;1.90;;
49728;SDS011;66333;49.798;10.968;2023-02-28T01:44:02;4.37;;;2.07;;
49728;SDS011;66333;49.798;10.968;2023-02-28T01:46:30;4.10;;;2.10;;
49728;SDS011;66333;49.798;10.968;2023-02-28T01:48:59;4.33;;;2.03;;
49728;SDS011;66333;49.798;10.968;2023-02-28T01:51:32;4.13;;;1.60;;
49728;SDS011;66333;49.798;10.968;2023-02-28T01:54:03;3.63;;;1.80;;
49728;SDS011;66333;49.798;10.968;2023-02-28T01:56:40;4.57;;;1.97;;
49728;SDS011;66333;49.798;10.968;2023-02-28T01:59:12;5.40;;;2.83;;
49728;SDS011;66333;49.798;10.968;2023-02-28T02:01:41;4.57;;;2.03;;
49728;SDS011;66333;49.798;10.968;2023-02-28T02:04:07;4.30;;;2.20;;
49728;SDS011;66333;49.798;10.968;2023-02-28T02:06:34;4.43;;;1.93;;
49728;SDS011;66333;49.798;10.968;2023-02-28T02:09:04;4.53;;;1.90;;
49728;SDS011;66333;49.798;10.968;2023-02-28T02:11:31;4.40;;;1.77;;
49728;SDS011;66333;49.798;10.968;2023-02-28T02:14:03;4.00;;;1.90;;
49728;SDS011;66333;49.798;10.968;2023-02-28T02:16:41;4.37;;;1.87;;
49728;SDS011;66333;49.798;10.968;2023-02-28T02:19:21;4.47;;;2.10;;
49728;SDS011;66333;49.798;10.968;2023-02-28T02:22:12;3.97;;;1.83;;
49728;SDS011;66333;49.798;10.968;2023-02-28T02:25:13;4.57;;;1.93;;
49728;SDS011;66333;49.798;10.968;2023-02-28T02:31:05;4.47;;;2.10;;
49728;SDS011;66333;49.798;10.968;2023-02-28T02:36:49;4.57;;;2.00;;
49728;SDS011;66333;49.798;10.968;2023-02-28T02:39:23;4.20;;;1.97;;
49728;SDS011;66333;49.798;10.968;2023-02-28T02:41:59;4.43;;;1.60;;
49728;SDS011;66333;49.798;10.968;2023-02-28T02:44:28;4.60;;;2.10;;
49728;SDS011;66333;49.798;10.968;2023-02-28T02:47:02;4.65;;;1.80;;
49728;SDS011;66333;49.798;10.968;2023-02-28T02:49:33;4.17;;;1.90;;
49728;SDS011;66333;49.798;10.968;2023-02-28T02:52:02;5.20;;;1.67;;
49728;SDS011;66333;49.798;10.968;2023-02-28T02:54:31;4.90;;;1.90;;
49728;SDS011;66333;49.798;10.968;2023-02-28T02:57:01;4.70;;;2.10;;
49728;SDS011;66333;49.798;10.968;2023-02-28T02:59:31;4.47;;;2.10;;
49728;SDS011;66333;49.798;10.968;2023-02-28T03:02:01;4.43;;;2.00;;
49728;SDS011;66333;49.798;10.968;2023-02-28T03:04:31;4.13;;;1.80;;
49728;SDS011;66333;49.798;10.968;2023-02-28T03:07:04;4.53;;;2.13;;
49728;SDS011;66333;49.798;10.968;2023-02-28T03:09:32;5.00;;;1.77;;
49728;SDS011;66333;49.798;10.968;2023-02-28T03:12:00;4.67;;;2.00;;
49728;SDS011;66333;49.798;10.968;2023-02-28T03:14:31;4.40;;;2.07;;
49728;SDS011;66333;49.798;10.968;2023-02-28T03:17:17;4.30;;;2.00;;
49728;SDS011;66333;49.798;10.968;2023-02-28T03:20:03;4.13;;;2.07;;
49728;SDS011;66333;49.798;10.968;2023-02-28T03:22:40;4.20;;;1.90;;
49728;SDS011;66333;49.798;10.968;2023-02-28T03:25:18;4.63;;;1.90;;
49728;SDS011;66333;49.798;10.968;2023-02-28T03:27:53;4.27;;;1.90;;
49728;SDS011;66333;49.798;10.968;2023-02-28T03:30:26;3.50;;;1.83;;
49728;SDS011;66333;49.798;10.968;2023-02-28T03:32:59;4.17;;;2.10;;
49728;SDS011;66333;49.798;10.968;2023-02-28T03:35:34;4.00;;;1.93;;
49728;SDS011;66333;49.798;10.968;2023-02-28T03:38:05;5.27;;;2.20;;
49728;SDS011;66333;49.798;10.968;2023-02-28T03:40:39;4.50;;;1.92;;
49728;SDS011;66333;49.798;10.968;2023-02-28T03:43:09;4.67;;;2.17;;
49728;SDS011;66333;49.798;10.968;2023-02-28T03:45:39;4.20;;;2.00;;
49728;SDS011;66333;49.798;10.968;2023-02-28T03:48:08;4.57;;;1.97;;
49728;SDS011;66333;49.798;10.968;2023-02-28T03:50:41;4.87;;;2.20;;
49728;SDS011;66333;49.798;10.968;2023-02-28T03:53:11;4.33;;;2.00;;
49728;SDS011;66333;49.798;10.968;2023-02-28T03:55:42;4.63;;;2.07;;
49728;SDS011;66333;49.798;10.968;2023-02-28T03:58:12;4.70;;;2.17;;
49728;SDS011;66333;49.798;10.968;2023-02-28T04:03:14;4.67;;;1.93;;
49728;SDS011;66333;49.798;10.968;2023-02-28T04:05:46;4.27;;;2.00;;
49728;SDS011;66333;49.798;10.968;2023-02-28T04:08:17;5.03;;;2.07;;
49728;SDS011;66333;49.798;10.968;2023-02-28T04:10:44;4.50;;;1.90;;
49728;SDS011;66333;49.798;10.968;2023-02-28T04:13:16;4.53;;;2.17;;
49728;SDS011;66333;49.798;10.968;2023-02-28T04:15:42;5.03;;;2.20;;
49728;SDS011;66333;49.798;10.968;2023-02-28T04:18:08;5.10;;;2.30;;
49728;SDS011;66333;49.798;10.968;2023-02-28T04:20:35;5.00;;;2.10;;
49728;SDS011;66333;49.798;10.968;2023-02-28T04:23:03;4.63;;;2.10;;
49728;SDS011;66333;49.798;10.968;2023-02-28T04:25:30;3.80;;;1.80;;
49728;SDS011;66333;49.798;10.968;2023-02-28T04:27:56;5.00;;;2.10;;
49728;SDS011;66333;49.798;10.968;2023-02-28T04:30:22;4.57;;;2.00;;
49728;SDS011;66333;49.798;10.968;2023-02-28T04:32:49;4.27;;;2.03;;
49728;SDS011;66333;49.798;10.968;2023-02-28T04:35:15;4.60;;;2.40;;
49728;SDS011;66333;49.798;10.968;2023-02-28T04:37:41;4.93;;;1.97;;
49728;SDS011;66333;49.798;10.968;2023-02-28T04:40:10;3.93;;;1.93;;
49728;SDS011;66333;49.798;10.968;2023-02-28T04:42:36;4.40;;;1.90;;
49728;SDS011;66333;49.798;10.968;2023-02-28T04:45:03;4.73;;;2.07;;
49728;SDS011;66333;49.798;10.968;2023-02-28T04:47:30;4.53;;;2.37;;
49728;SDS011;66333;49.798;10.968;2023-02-28T04:49:57;5.07;;;2.03;;
49728;SDS011;66333;49.798;10.968;2023-02-28T04:52:23;5.13;;;1.90;;
49728;SDS011;66333;49.798;10.968;2023-02-28T04:54:49;4.50;;;2.03;;
49728;SDS011;66333;49.798;10.968;2023-02-28T04:57:17;3.90;;;2.00;;
49728;SDS011;66333;49.798;10.968;2023-02-28T04:59:43;4.30;;;2.07;;
49728;SDS011;66333;49.798;10.968;2023-02-28T05:02:10;4.10;;;1.77;;
49728;SDS011;66333;49.798;10.968;2023-02-28T05:04:36;4.13;;;2.03;;
49728;SDS011;66333;49.798;10.968;2023-02-28T05:07:03;5.00;;;2.00;;
49728;SDS011;66333;49.798;10.968;2023-02-28T05:09:29;4.80;;;2.37;;
49728;SDS011;66333;49.798;10.968;2023-02-28T05:11:55;4.87;;;2.50;;
49728;SDS011;66333;49.798;10.968;2023-02-28T05:14:24;4.63;;;2.30;;
49728;SDS011;66333;49.798;10.968;2023-02-28T05:16:50;4.60;;;2.10;;
49728;SDS011;66333;49.798;10.968;2023-02-28T05:19:16;5.33;;;2.37;;
49728;SDS011;66333;49.798;10.968;2023-02-28T05:21:48;4.53;;;1.87;;
49728;SDS011;66333;49.798;10.968;2023-02-28T05:24:16;5.07;;;2.40;;
49728;SDS011;66333;49.798;10.968;2023-02-28T05:26:47;4.73;;;2.00;;
49728;SDS011;66333;49.798;10.968;2023-02-28T05:29:15;4.80;;;2.00;;
49728;SDS011;66333;49.798;10.968;2023-02-28T05:31:43;8.90;;;5.97;;
49728;SDS011;66333;49.798;10.968;2023-02-28T05:34:09;9.10;;;5.33;;
49728;SDS011;66333;49.798;10.968;2023-02-28T05:36:37;7.67;;;4.73;;
49728;SDS011;66333;49.798;10.968;2023-02-28T05:39:05;7.40;;;4.17;;
49728;SDS011;66333;49.798;10.968;2023-02-28T05:41:32;6.43;;;3.87;;
49728;SDS011;66333;49.798;10.968;2023-02-28T05:43:58;7.70;;;3.70;;
49728;SDS011;66333;49.798;10.968;2023-02-28T05:46:26;6.97;;;4.00;;
49728;SDS011;66333;49.798;10.968;2023-02-28T05:48:53;6.13;;;4.00;;
49728;SDS011;66333;49.798;10.968;2023-02-28T05:51:20;5.67;;;3.37;;
49728;SDS011;66333;49.798;10.968;2023-02-28T05:53:47;6.70;;;3.80;;
49728;SDS011;66333;49.798;10.968;2023-02-28T05:56:14;7.93;;;4.30;;
49728;SDS011;66333;49.798;10.968;2023-02-28T05:58:40;6.50;;;3.80;;
49728;SDS011;66333;49.798;10.968;2023-02-28T06:01:20;6.23;;;3.83;;
49728;SDS011;66333;49.798;10.968;2023-02-28T06:03:49;6.47;;;3.50;;
49728;SDS011;66333;49.798;10.968;2023-02-28T06:06:17;6.70;;;3.67;;
49728;SDS011;66333;49.798;10.968;2023-02-28T06:08:44;7.20;;;3.83;;
49728;SDS011;66333;49.798;10.968;2023-02-28T06:11:10;6.20;;;3.80;;
49728;SDS011;66333;49.798;10.968;2023-02-28T06:13:37;6.20;;;3.40;;
49728;SDS011;66333;49.798;10.968;2023-02-28T06:16:03;7.63;;;3.80;;
49728;SDS011;66333;49.798;10.968;2023-02-28T06:18:30;7.37;;;3.90;;
49728;SDS011;66333;49.798;10.968;2023-02-28T06:20:56;7.07;;;3.83;;
49728;SDS011;66333;49.798;10.968;2023-02-28T06:23:24;7.40;;;4.10;;
49728;SDS011;66333;49.798;10.968;2023-02-28T06:25:51;6.70;;;3.40;;
49728;SDS011;66333;49.798;10.968;2023-02-28T06:28:18;6.97;;;3.77;;
49728;SDS011;66333;49.798;10.968;2023-02-28T06:30:44;6.37;;;3.70;;
49728;SDS011;66333;49.798;10.968;2023-02-28T06:33:11;7.00;;;4.00;;
49728;SDS011;66333;49.798;10.968;2023-02-28T06:35:37;6.53;;;3.97;;
49728;SDS011;66333;49.798;10.968;2023-02-28T06:38:03;6.63;;;3.30;;
49728;SDS011;66333;49.798;10.968;2023-02-28T06:40:31;6.47;;;3.40;;
49728;SDS011;66333;49.798;10.968;2023-02-28T06:43:00;6.87;;;4.03;;
49728;SDS011;66333;49.798;10.968;2023-02-28T06:45:26;5.73;;;3.57;;
49728;SDS011;66333;49.798;10.968;2023-02-28T06:47:52;7.20;;;3.50;;
49728;SDS011;66333;49.798;10.968;2023-02-28T06:50:19;6.97;;;3.87;;
49728;SDS011;66333;49.798;10.968;2023-02-28T06:52:45;7.40;;;3.53;;
49728;SDS011;66333;49.798;10.968;2023-02-28T06:55:12;7.40;;;4.00;;
49728;SDS011;66333;49.798;10.968;2023-02-28T06:57:40;5.77;;;3.50;;
49728;SDS011;66333;49.798;10.968;2023-02-28T07:00:08;7.07;;;3.77;;
49728;SDS011;66333;49.798;10.968;2023-02-28T07:02:35;8.43;;;3.50;;
49728;SDS011;66333;49.798;10.968;2023-02-28T07:05:02;6.10;;;3.50;;
49728;SDS011;66333;49.798;10.968;2023-02-28T07:07:29;7.37;;;3.80;;
49728;SDS011;66333;49.798;10.968;2023-02-28T07:09:55;6.87;;;3.90;;
49728;SDS011;66333;49.798;10.968;2023-02-28T07:12:22;6.63;;;3.60;;
49728;SDS011;66333;49.798;10.968;2023-02-28T07:14:49;7.27;;;3.70;;
49728;SDS011;66333;49.798;10.968;2023-02-28T07:17:16;8.53;;;4.30;;
49728;SDS011;66333;49.798;10.968;2023-02-28T07:19:42;6.77;;;3.70;;
49728;SDS011;66333;49.798;10.968;2023-02-28T07:22:08;7.07;;;4.23;;
49728;SDS011;66333;49.798;10.968;2023-02-28T07:24:35;6.93;;;3.70;;
49728;SDS011;66333;49.798;10.968;2023-02-28T07:27:01;7.30;;;3.90;;
49728;SDS011;66333;49.798;10.968;2023-02-28T07:29:28;6.40;;;3.53;;
49728;SDS011;66333;49.798;10.968;2023-02-28T07:31:55;7.07;;;4.03;;
49728;SDS011;66333;49.798;10.968;2023-02-28T07:34:22;6.87;;;3.73;;
49728;SDS011;66333;49.798;10.968;2023-02-28T07:36:49;7.40;;;3.97;;
49728;SDS011;66333;49.798;10.968;2023-02-28T07:39:19;7.90;;;4.13;;
49728;SDS011;66333;49.798;10.968;2023-02-28T07:41:45;6.60;;;3.80;;
49728;SDS011;66333;49.798;10.968;2023-02-28T07:44:12;7.40;;;4.00;;
49728;SDS011;66333;49.798;10.968;2023-02-28T07:46:38;7.30;;;3.70;;
49728;SDS011;66333;49.798;10.968;2023-02-28T07:49:06;7.30;;;3.43;;
49728;SDS011;66333;49.798;10.968;2023-02-28T07:51:32;6.57;;;3.80;;
49728;SDS011;66333;49.798;10.968;2023-02-28T07:53:59;5.63;;;3.50;;
49728;SDS011;66333;49.798;10.968;2023-02-28T07:56:25;5.87;;;3.50;;
49728;SDS011;66333;49.798;10.968;2023-02-28T07:58:51;7.90;;;4.50;;
49728;SDS011;66333;49.798;10.968;2023-02-28T08:01:18;7.70;;;4.30;;
49728;SDS011;66333;49.798;10.968;2023-02-28T08:03:45;6.83;;;4.17;;
49728;SDS011;66333;49.798;10.968;2023-02-28T08:06:16;6.70;;;3.83;;
49728;SDS011;66333;49.798;10.968;2023-02-28T08:08:44;6.13;;;3.90;;
49728;SDS011;66333;49.798;10.968;2023-02-28T08:11:10;7.23;;;4.33;;
49728;SDS011;66333;49.798;10.968;2023-02-28T08:13:37;6.73;;;4.10;;
49728;SDS011;66333;49.798;10.968;2023-02-28T08:16:03;7.87;;;4.27;;
49728;SDS011;66333;49.798;10.968;2023-02-28T08:18:30;7.30;;;3.80;;
49728;SDS011;66333;49.798;10.968;2023-02-28T08:20:58;6.93;;;4.30;;
49728;SDS011;66333;49.798;10.968;2023-02-28T08:23:26;7.33;;;4.20;;
49728;SDS011;66333;49.798;10.968;2023-02-28T08:25:53;7.00;;;3.80;;
49728;SDS011;66333;49.798;10.968;2023-02-28T08:28:19;6.80;;;4.20;;
49728;SDS011;66333;49.798;10.968;2023-02-28T08:30:46;8.63;;;4.10;;
49728;SDS011;66333;49.798;10.968;2023-02-28T08:33:12;7.40;;;3.80;;
49728;SDS011;66333;49.798;10.968;2023-02-28T08:35:38;6.73;;;4.27;;
49728;SDS011;66333;49.798;10.968;2023-02-28T08:38:05;7.67;;;4.47;;
49728;SDS011;66333;49.798;10.968;2023-02-28T08:40:32;7.00;;;3.90;;
49728;SDS011;66333;49.798;10.968;2023-02-28T08:42:59;7.70;;;4.20;;
49728;SDS011;66333;49.798;10.968;2023-02-28T08:45:25;6.47;;;3.90;;
49728;SDS011;66333;49.798;10.968;2023-02-28T08:47:52;7.10;;;4.10;;
49728;SDS011;66333;49.798;10.968;2023-02-28T08:50:20;8.23;;;4.47;;
49728;SDS011;66333;49.798;10.968;2023-02-28T08:52:46;6.80;;;4.13;;
49728;SDS011;66333;49.798;10.968;2023-02-28T08:55:13;8.23;;;4.47;;
49728;SDS011;66333;49.798;10.968;2023-02-28T08:57:40;7.60;;;4.00;;
49728;SDS011;66333;49.798;10.968;2023-02-28T09:00:07;7.83;;;4.63;;
49728;SDS011;66333;49.798;10.968;2023-02-28T09:02:35;7.23;;;4.40;;
49728;SDS011;66333;49.798;10.968;2023-02-28T09:05:02;6.53;;;4.03;;
49728;SDS011;66333;49.798;10.968;2023-02-28T09:07:29;8.27;;;4.27;;
49728;SDS011;66333;49.798;10.968;2023-02-28T09:09:55;8.07;;;4.40;;
49728;SDS011;66333;49.798;10.968;2023-02-28T09:12:23;7.93;;;4.07;;
49728;SDS011;66333;49.798;10.968;2023-02-28T09:14:51;7.97;;;4.23;;
49728;SDS011;66333;49.798;10.968;2023-02-28T09:17:19;7.87;;;4.53;;
49728;SDS011;66333;49.798;10.968;2023-02-28T09:19:47;6.60;;;3.93;;
49728;SDS011;66333;49.798;10.968;2023-02-28T09:22:14;7.77;;;4.70;;
49728;SDS011;66333;49.798;10.968;2023-02-28T09:24:41;7.40;;;4.10;;
49728;SDS011;66333;49.798;10.968;2023-02-28T09:27:09;7.13;;;4.23;;
49728;SDS011;66333;49.798;10.968;2023-02-28T09:29:36;8.07;;;4.10;;
49728;SDS011;66333;49.798;10.968;2023-02-28T09:32:04;7.77;;;4.50;;
49728;SDS011;66333;49.798;10.968;2023-02-28T09:34:31;8.13;;;4.50;;
49728;SDS011;66333;49.798;10.968;2023-02-28T09:36:58;6.47;;;3.83;;
49728;SDS011;66333;49.798;10.968;2023-02-28T09:39:24;8.77;;;4.93;;
49728;SDS011;66333;49.798;10.968;2023-02-28T09:41:51;8.03;;;4.17;;
49728;SDS011;66333;49.798;10.968;2023-02-28T09:44:26;6.70;;;4.03;;
49728;SDS011;66333;49.798;10.968;2023-02-28T09:46:58;7.73;;;4.50;;
49728;SDS011;66333;49.798;10.968;2023-02-28T09:49:31;7.53;;;4.27;;
49728;SDS011;66333;49.798;10.968;2023-02-28T09:52:04;8.27;;;4.47;;
49728;SDS011;66333;49.798;10.968;2023-02-28T09:54:34;7.87;;;4.50;;
49728;SDS011;66333;49.798;10.968;2023-02-28T09:57:02;7.20;;;4.27;;
49728;SDS011;66333;49.798;10.968;2023-02-28T09:59:36;7.80;;;4.07;;
49728;SDS011;66333;49.798;10.968;2023-02-28T10:02:37;7.87;;;3.97;;
49728;SDS011;66333;49.798;10.968;2023-02-28T10:05:13;6.40;;;4.20;;
49728;SDS011;66333;49.798;10.968;2023-02-28T10:07:48;7.97;;;4.03;;
49728;SDS011;66333;49.798;10.968;2023-02-28T10:10:24;7.60;;;4.10;;
49728;SDS011;66333;49.798;10.968;2023-02-28T10:12:56;7.20;;;4.20;;
49728;SDS011;66333;49.798;10.968;2023-02-28T10:15:27;7.67;;;4.13;;
49728;SDS011;66333;49.798;10.968;2023-02-28T10:17:57;7.17;;;4.30;;
49728;SDS011;66333;49.798;10.968;2023-02-28T10:20:28;7.60;;;4.23;;
49728;SDS011;66333;49.798;10.968;2023-02-28T10:23:01;7.53;;;4.53;;
49728;SDS011;66333;49.798;10.968;2023-02-28T10:25:35;7.07;;;4.20;;
49728;SDS011;66333;49.798;10.968;2023-02-28T10:28:08;8.27;;;4.23;;
49728;SDS011;66333;49.798;10.968;2023-02-28T10:30:37;8.20;;;4.37;;
49728;SDS011;66333;49.798;10.968;2023-02-28T10:33:08;6.83;;;4.10;;
49728;SDS011;66333;49.798;10.968;2023-02-28T10:35:45;7.73;;;4.07;;
49728;SDS011;66333;49.798;10.968;2023-02-28T10:38:14;6.97;;;4.53;;
49728;SDS011;66333;49.798;10.968;2023-02-28T10:40:43;7.70;;;4.77;;
49728;SDS011;66333;49.798;10.968;2023-02-28T10:43:17;7.73;;;4.10;;
49728;SDS011;66333;49.798;10.968;2023-02-28T10:45:52;7.93;;;4.43;;
49728;SDS011;66333;49.798;10.968;2023-02-28T10:48:26;7.87;;;4.50;;
49728;SDS011;66333;49.798;10.968;2023-02-28T10:50:57;6.90;;;4.37;;
49728;SDS011;66333;49.798;10.968;2023-02-28T10:53:28;7.63;;;4.60;;
49728;SDS011;66333;49.798;10.968;2023-02-28T10:55:58;8.03;;;4.43;;
49728;SDS011;66333;49.798;10.968;2023-02-28T10:58:27;8.37;;;4.70;;
49728;SDS011;66333;49.798;10.968;2023-02-28T11:00:56;8.23;;;4.83;;
49728;SDS011;66333;49.798;10.968;2023-02-28T11:03:25;7.30;;;4.23;;
49728;SDS011;66333;49.798;10.968;2023-02-28T11:05:55;7.43;;;4.50;;
49728;SDS011;66333;49.798;10.968;2023-02-28T11:08:24;7.60;;;4.60;;
49728;SDS011;66333;49.798;10.968;2023-02-28T11:10:53;7.40;;;4.53;;
49728;SDS011;66333;49.798;10.968;2023-02-28T11:13:24;7.23;;;4.20;;
49728;SDS011;66333;49.798;10.968;2023-02-28T11:15:54;7.97;;;4.50;;
49728;SDS011;66333;49.798;10.968;2023-02-28T11:18:24;8.23;;;4.80;;
49728;SDS011;66333;49.798;10.968;2023-02-28T11:20:55;7.20;;;4.33;;
49728;SDS011;66333;49.798;10.968;2023-02-28T11:23:25;7.63;;;4.23;;
49728;SDS011;66333;49.798;10.968;2023-02-28T11:25:55;9.97;;;4.83;;
49728;SDS011;66333;49.798;10.968;2023-02-28T11:28:25;7.87;;;4.60;;
49728;SDS011;66333;49.798;10.968;2023-02-28T11:31:03;8.57;;;5.27;;
49728;SDS011;66333;49.798;10.968;2023-02-28T11:33:31;7.43;;;4.27;;
49728;SDS011;66333;49.798;10.968;2023-02-28T11:36:09;7.72;;;4.40;;
49728;SDS011;66333;49.798;10.968;2023-02-28T11:38:39;7.90;;;4.57;;
49728;SDS011;66333;49.798;10.968;2023-02-28T11:41:19;7.17;;;4.23;;
49728;SDS011;66333;49.798;10.968;2023-02-28T11:43:56;9.17;;;4.60;;
49728;SDS011;66333;49.798;10.968;2023-02-28T11:46:35;8.80;;;4.77;;
49728;SDS011;66333;49.798;10.968;2023-02-28T11:49:11;6.43;;;4.17;;
49728;SDS011;66333;49.798;10.968;2023-02-28T11:51:50;7.47;;;4.47;;
49728;SDS011;66333;49.798;10.968;2023-02-28T11:54:26;7.03;;;4.20;;
49728;SDS011;66333;49.798;10.968;2023-02-28T11:57:03;7.97;;;4.33;;
49728;SDS011;66333;49.798;10.968;2023-02-28T11:59:47;6.70;;;4.10;;
49728;SDS011;66333;49.798;10.968;2023-02-28T12:02:24;8.13;;;4.80;;
49728;SDS011;66333;49.798;10.968;2023-02-28T12:04:56;7.97;;;4.23;;
49728;SDS011;66333;49.798;10.968;2023-02-28T12:07:44;7.50;;;4.37;;
49728;SDS011;66333;49.798;10.968;2023-02-28T12:10:22;9.13;;;4.37;;
49728;SDS011;66333;49.798;10.968;2023-02-28T12:12:54;7.83;;;4.03;;
49728;SDS011;66333;49.798;10.968;2023-02-28T12:15:36;7.67;;;4.37;;
49728;SDS011;66333;49.798;10.968;2023-02-28T12:18:15;7.23;;;4.17;;
49728;SDS011;66333;49.798;10.968;2023-02-28T12:20:52;6.90;;;4.20;;
49728;SDS011;66333;49.798;10.968;2023-02-28T12:23:30;7.32;;;4.63;;
49728;SDS011;66333;49.798;10.968;2023-02-28T12:26:21;7.40;;;4.30;;
49728;SDS011;66333;49.798;10.968;2023-02-28T12:28:57;9.40;;;4.50;;
49728;SDS011;66333;49.798;10.968;2023-02-28T12:31:28;8.13;;;4.50;;
49728;SDS011;66333;49.798;10.968;2023-02-28T12:34:00;8.00;;;4.40;;
49728;SDS011;66333;49.798;10.968;2023-02-28T12:36:30;8.03;;;4.37;;
49728;SDS011;66333;49.798;10.968;2023-02-28T12:39:00;8.13;;;4.60;;
49728;SDS011;66333;49.798;10.968;2023-02-28T12:41:33;9.63;;;4.60;;
49728;SDS011;66333;49.798;10.968;2023-02-28T12:44:06;7.65;;;4.53;;
49728;SDS011;66333;49.798;10.968;2023-02-28T12:46:38;9.27;;;4.43;;
49728;SDS011;66333;49.798;10.968;2023-02-28T12:49:09;8.03;;;4.30;;
49728;SDS011;66333;49.798;10.968;2023-02-28T12:51:42;7.50;;;4.67;;
49728;SDS011;66333;49.798;10.968;2023-02-28T12:54:13;6.93;;;4.33;;
49728;SDS011;66333;49.798;10.968;2023-02-28T12:56:48;7.73;;;4.47;;
49728;SDS011;66333;49.798;10.968;2023-02-28T12:59:22;7.10;;;4.13;;
49728;SDS011;66333;49.798;10.968;2023-02-28T13:05:06;6.57;;;4.17;;
49728;SDS011;66333;49.798;10.968;2023-02-28T13:08:08;8.13;;;4.80;;
49728;SDS011;66333;49.798;10.968;2023-02-28T13:10:58;7.37;;;4.43;;
49728;SDS011;66333;49.798;10.968;2023-02-28T13:13:26;7.27;;;4.23;;
49728;SDS011;66333;49.798;10.968;2023-02-28T13:15:58;8.47;;;4.93;;
49728;SDS011;66333;49.798;10.968;2023-02-28T13:18:28;7.80;;;4.57;;
49728;SDS011;66333;49.798;10.968;2023-02-28T13:20:57;7.60;;;4.27;;
49728;SDS011;66333;49.798;10.968;2023-02-28T13:26:23;7.83;;;4.53;;
49728;SDS011;66333;49.798;10.968;2023-02-28T13:29:29;7.18;;;4.30;;
49728;SDS011;66333;49.798;10.968;2023-02-28T13:44:02;8.27;;;4.53;;
49728;SDS011;66333;49.798;10.968;2023-02-28T13:46:32;7.37;;;4.50;;
49728;SDS011;66333;49.798;10.968;2023-02-28T13:49:20;7.27;;;4.50;;
49728;SDS011;66333;49.798;10.968;2023-02-28T13:51:53;7.60;;;4.50;;
49728;SDS011;66333;49.798;10.968;2023-02-28T13:54:31;9.00;;;4.17;;
49728;SDS011;66333;49.798;10.968;2023-02-28T13:57:12;8.03;;;4.47;;
49728;SDS011;66333;49.798;10.968;2023-02-28T13:59:50;7.53;;;4.47;;
49728;SDS011;66333;49.798;10.968;2023-02-28T14:02:38;8.67;;;4.87;;
49728;SDS011;66333;49.798;10.968;2023-02-28T14:05:15;7.38;;;4.60;;
49728;SDS011;66333;49.798;10.968;2023-02-28T14:07:45;8.63;;;4.57;;
49728;SDS011;66333;49.798;10.968;2023-02-28T14:10:23;7.77;;;4.43;;
49728;SDS011;66333;49.798;10.968;2023-02-28T14:12:53;8.53;;;4.53;;
49728;SDS011;66333;49.798;10.968;2023-02-28T14:15:36;7.33;;;4.57;;
49728;SDS011;66333;49.798;10.968;2023-02-28T14:18:13;8.27;;;4.67;;
49728;SDS011;66333;49.798;10.968;2023-02-28T14:20:43;8.07;;;4.77;;
49728;SDS011;66333;49.798;10.968;2023-02-28T14:23:13;7.57;;;4.57;;
49728;SDS011;66333;49.798;10.968;2023-02-28T14:25:47;7.43;;;4.50;;
49728;SDS011;66333;49.798;10.968;2023-02-28T14:28:28;8.40;;;5.00;;
49728;SDS011;66333;49.798;10.968;2023-02-28T14:31:12;7.90;;;4.65;;
49728;SDS011;66333;49.798;10.968;2023-02-28T14:33:45;8.40;;;4.80;;
49728;SDS011;66333;49.798;10.968;2023-02-28T14:36:30;7.30;;;4.30;;
49728;SDS011;66333;49.798;10.968;2023-02-28T14:38:59;6.90;;;4.50;;
49728;SDS011;66333;49.798;10.968;2023-02-28T14:41:31;8.40;;;4.60;;
49728;SDS011;66333;49.798;10.968;2023-02-28T14:44:02;8.10;;;4.50;;
49728;SDS011;66333;49.798;10.968;2023-02-28T14:46:39;6.80;;;4.07;;
49728;SDS011;66333;49.798;10.968;2023-02-28T14:49:12;7.30;;;4.27;;
49728;SDS011;66333;49.798;10.968;2023-02-28T14:51:42;7.20;;;4.30;;
49728;SDS011;66333;49.798;10.968;2023-02-28T14:54:12;8.40;;;4.77;;
49728;SDS011;66333;49.798;10.968;2023-02-28T14:56:40;7.43;;;4.40;;
49728;SDS011;66333;49.798;10.968;2023-02-28T14:59:21;7.03;;;4.47;;
49728;SDS011;66333;49.798;10.968;2023-02-28T15:01:50;7.57;;;4.87;;
49728;SDS011;66333;49.798;10.968;2023-02-28T15:04:21;8.17;;;4.60;;
49728;SDS011;66333;49.798;10.968;2023-02-28T15:07:06;7.10;;;4.17;;
49728;SDS011;66333;49.798;10.968;2023-02-28T15:09:33;7.73;;;4.63;;
49728;SDS011;66333;49.798;10.968;2023-02-28T15:12:00;7.67;;;4.40;;
49728;SDS011;66333;49.798;10.968;2023-02-28T15:14:26;6.93;;;4.40;;
49728;SDS011;66333;49.798;10.968;2023-02-28T15:16:55;7.77;;;4.90;;
49728;SDS011;66333;49.798;10.968;2023-02-28T15:19:27;8.43;;;4.80;;